メインページ
METAR-TAF:

METAR-TAF

空港 :

カイロ国際空港

カイロ, エジプト

緯度: 30-08N, 経度: 031-24E, 海抜: 64m

現時点の気象観測

当レポートは24分前の22:30(UTC)に作成
の風 7kt
気温 27°C
湿度 79%
気圧 1008 hPa
視程10km以上
1,500メートル以下は雲なし、積乱雲なし

METAR: HECA 172230Z 35007KT CAVOK 27/23 Q1008 NOSIG

時間: 00:54 (22:54 UTC)

予報

当レポートは5時間54分前の17:00(UTC)に作成
予報は17日の 18時(UTC)から 18日の 24時(UTC)まで有効
北/北西の風 14kt
視程10km以上
1,500メートル以下は雲なし、積乱雲なし
確率 40% :
18日の 00時(UTC)から 18日の 08時(UTC)まで一時的に
北/北西の風 6kt
視程: 4000m
高度2500ftの千切れ雲あり
高度7000ftの雲は散在している
18日の 15時(UTC)から 18日の 21時(UTC)まで一時的に
の風 15kt、最大25ktの突風を伴う

TAF: HECA 171700Z 1718/1824 33014KT CAVOK PROB40 TEMPO 1800/1808 33006KT 4000 BR BKN025 SCT070 TEMPO 1815/1821 35015G25KT

4,000以上の空港の気象観測と天気予報(METAR報とTAF報)

利用可能な観測所は地図上に黄色い丸と赤い丸で示す。

丸の上にカーソルを重ねると観測所名を参照できる。

次にクリックすると気象観測と天気予報を参照できる。

マップの切り替え:黒色「×」印の緑ボタンをクリックして拡大、「-」印の緑ボタンをクリックして縮小、緑色の三角印をクリックして隣りの地図に切り替え


METAR-TAF: